sensor_id;sensor_type;location;lat;lon;timestamp;P1;durP1;ratioP1;P2;durP2;ratioP2
50301;SDS011;36550;50.472;19.744;2022-07-29T00:01:36;6.67;;;2.40;;
50301;SDS011;36550;50.472;19.744;2022-07-29T00:04:20;4.53;;;2.17;;
50301;SDS011;36550;50.472;19.744;2022-07-29T00:07:04;5.53;;;2.30;;
50301;SDS011;36550;50.472;19.744;2022-07-29T00:09:49;6.53;;;2.17;;
50301;SDS011;36550;50.472;19.744;2022-07-29T00:12:33;6.87;;;2.50;;
50301;SDS011;36550;50.472;19.744;2022-07-29T00:15:17;3.98;;;2.12;;
50301;SDS011;36550;50.472;19.744;2022-07-29T00:18:01;4.12;;;2.20;;
50301;SDS011;36550;50.472;19.744;2022-07-29T00:20:45;4.25;;;2.02;;
50301;SDS011;36550;50.472;19.744;2022-07-29T00:23:30;7.40;;;2.52;;
50301;SDS011;36550;50.472;19.744;2022-07-29T00:26:14;5.17;;;2.60;;
50301;SDS011;36550;50.472;19.744;2022-07-29T00:28:59;8.50;;;2.80;;
50301;SDS011;36550;50.472;19.744;2022-07-29T00:31:44;6.45;;;2.30;;
50301;SDS011;36550;50.472;19.744;2022-07-29T00:34:29;7.60;;;2.45;;
50301;SDS011;36550;50.472;19.744;2022-07-29T00:37:32;5.03;;;2.50;;
50301;SDS011;36550;50.472;19.744;2022-07-29T00:40:16;4.87;;;2.42;;
50301;SDS011;36550;50.472;19.744;2022-07-29T00:43:00;9.93;;;2.50;;
50301;SDS011;36550;50.472;19.744;2022-07-29T00:45:45;4.85;;;1.95;;
50301;SDS011;36550;50.472;19.744;2022-07-29T00:48:29;8.30;;;2.67;;
50301;SDS011;36550;50.472;19.744;2022-07-29T00:51:14;10.58;;;2.40;;
50301;SDS011;36550;50.472;19.744;2022-07-29T00:53:58;7.90;;;2.55;;
50301;SDS011;36550;50.472;19.744;2022-07-29T00:56:42;8.05;;;2.70;;
50301;SDS011;36550;50.472;19.744;2022-07-29T00:59:27;6.40;;;2.60;;
50301;SDS011;36550;50.472;19.744;2022-07-29T01:02:12;4.83;;;2.20;;
50301;SDS011;36550;50.472;19.744;2022-07-29T01:04:56;6.00;;;2.42;;
50301;SDS011;36550;50.472;19.744;2022-07-29T01:07:41;5.37;;;2.08;;
50301;SDS011;36550;50.472;19.744;2022-07-29T01:10:25;6.85;;;2.52;;
50301;SDS011;36550;50.472;19.744;2022-07-29T01:16:10;3.70;;;2.27;;
50301;SDS011;36550;50.472;19.744;2022-07-29T01:19:00;4.05;;;2.70;;
50301;SDS011;36550;50.472;19.744;2022-07-29T01:21:51;6.97;;;2.47;;
50301;SDS011;36550;50.472;19.744;2022-07-29T01:28:01;6.60;;;2.58;;
50301;SDS011;36550;50.472;19.744;2022-07-29T01:30:59;6.80;;;2.37;;
50301;SDS011;36550;50.472;19.744;2022-07-29T01:33:48;5.92;;;1.90;;
50301;SDS011;36550;50.472;19.744;2022-07-29T01:36:36;9.25;;;2.40;;
50301;SDS011;36550;50.472;19.744;2022-07-29T01:39:31;7.10;;;2.70;;
50301;SDS011;36550;50.472;19.744;2022-07-29T01:48:27;6.97;;;2.77;;
50301;SDS011;36550;50.472;19.744;2022-07-29T01:51:38;7.83;;;2.67;;
50301;SDS011;36550;50.472;19.744;2022-07-29T01:54:35;5.47;;;2.27;;
50301;SDS011;36550;50.472;19.744;2022-07-29T01:57:29;5.00;;;2.40;;
50301;SDS011;36550;50.472;19.744;2022-07-29T02:00:17;8.25;;;2.60;;
50301;SDS011;36550;50.472;19.744;2022-07-29T02:03:02;5.83;;;3.05;;
50301;SDS011;36550;50.472;19.744;2022-07-29T02:05:51;7.75;;;3.10;;
50301;SDS011;36550;50.472;19.744;2022-07-29T02:08:36;6.65;;;2.72;;
50301;SDS011;36550;50.472;19.744;2022-07-29T02:11:22;9.58;;;2.95;;
50301;SDS011;36550;50.472;19.744;2022-07-29T02:14:07;10.25;;;3.05;;
50301;SDS011;36550;50.472;19.744;2022-07-29T02:16:54;5.22;;;2.45;;
50301;SDS011;36550;50.472;19.744;2022-07-29T02:19:40;7.80;;;2.40;;
50301;SDS011;36550;50.472;19.744;2022-07-29T02:22:26;4.03;;;2.20;;
50301;SDS011;36550;50.472;19.744;2022-07-29T02:25:14;5.95;;;2.80;;
50301;SDS011;36550;50.472;19.744;2022-07-29T02:28:00;4.22;;;2.30;;
50301;SDS011;36550;50.472;19.744;2022-07-29T02:30:47;4.62;;;2.67;;
50301;SDS011;36550;50.472;19.744;2022-07-29T02:33:35;6.40;;;2.85;;
50301;SDS011;36550;50.472;19.744;2022-07-29T02:36:21;4.35;;;2.92;;
50301;SDS011;36550;50.472;19.744;2022-07-29T02:41:57;4.40;;;2.25;;
50301;SDS011;36550;50.472;19.744;2022-07-29T02:44:45;7.42;;;2.50;;
50301;SDS011;36550;50.472;19.744;2022-07-29T02:48:05;7.40;;;2.87;;
50301;SDS011;36550;50.472;19.744;2022-07-29T02:50:31;6.35;;;3.15;;
50301;SDS011;36550;50.472;19.744;2022-07-29T02:53:17;6.12;;;2.50;;
50301;SDS011;36550;50.472;19.744;2022-07-29T02:56:08;5.55;;;2.33;;
50301;SDS011;36550;50.472;19.744;2022-07-29T02:58:56;4.67;;;2.30;;
50301;SDS011;36550;50.472;19.744;2022-07-29T03:01:43;5.50;;;3.12;;
50301;SDS011;36550;50.472;19.744;2022-07-29T03:04:28;5.83;;;2.70;;
50301;SDS011;36550;50.472;19.744;2022-07-29T03:07:15;6.37;;;3.00;;
50301;SDS011;36550;50.472;19.744;2022-07-29T03:10:02;4.73;;;2.90;;
50301;SDS011;36550;50.472;19.744;2022-07-29T03:12:49;8.00;;;3.83;;
50301;SDS011;36550;50.472;19.744;2022-07-29T03:15:33;7.95;;;3.10;;
50301;SDS011;36550;50.472;19.744;2022-07-29T03:18:18;8.25;;;3.35;;
50301;SDS011;36550;50.472;19.744;2022-07-29T03:21:03;5.60;;;3.00;;
50301;SDS011;36550;50.472;19.744;2022-07-29T03:23:47;9.28;;;3.35;;
50301;SDS011;36550;50.472;19.744;2022-07-29T03:26:31;11.78;;;3.40;;
50301;SDS011;36550;50.472;19.744;2022-07-29T03:29:16;8.90;;;3.02;;
50301;SDS011;36550;50.472;19.744;2022-07-29T03:32:03;8.45;;;2.55;;
50301;SDS011;36550;50.472;19.744;2022-07-29T03:34:49;10.45;;;2.95;;
50301;SDS011;36550;50.472;19.744;2022-07-29T03:37:33;6.03;;;3.15;;
50301;SDS011;36550;50.472;19.744;2022-07-29T03:40:22;7.62;;;3.08;;
50301;SDS011;36550;50.472;19.744;2022-07-29T03:43:16;5.95;;;3.27;;
50301;SDS011;36550;50.472;19.744;2022-07-29T03:46:02;7.00;;;3.40;;
50301;SDS011;36550;50.472;19.744;2022-07-29T03:48:52;8.33;;;3.75;;
50301;SDS011;36550;50.472;19.744;2022-07-29T03:51:40;9.88;;;3.50;;
50301;SDS011;36550;50.472;19.744;2022-07-29T03:54:25;11.73;;;2.70;;
50301;SDS011;36550;50.472;19.744;2022-07-29T03:57:12;4.42;;;2.60;;
50301;SDS011;36550;50.472;19.744;2022-07-29T03:59:56;5.53;;;2.65;;
50301;SDS011;36550;50.472;19.744;2022-07-29T04:02:42;7.25;;;2.87;;
50301;SDS011;36550;50.472;19.744;2022-07-29T04:05:32;5.65;;;2.60;;
50301;SDS011;36550;50.472;19.744;2022-07-29T04:08:16;5.80;;;2.80;;
50301;SDS011;36550;50.472;19.744;2022-07-29T04:11:01;4.28;;;2.52;;
50301;SDS011;36550;50.472;19.744;2022-07-29T04:13:46;5.40;;;2.70;;
50301;SDS011;36550;50.472;19.744;2022-07-29T04:16:30;6.92;;;3.00;;
50301;SDS011;36550;50.472;19.744;2022-07-29T04:19:14;8.70;;;2.45;;
50301;SDS011;36550;50.472;19.744;2022-07-29T04:21:59;5.65;;;2.37;;
50301;SDS011;36550;50.472;19.744;2022-07-29T04:24:43;4.13;;;2.37;;
50301;SDS011;36550;50.472;19.744;2022-07-29T04:27:27;10.65;;;2.45;;
50301;SDS011;36550;50.472;19.744;2022-07-29T04:30:12;3.42;;;2.02;;
50301;SDS011;36550;50.472;19.744;2022-07-29T04:32:56;3.33;;;2.20;;
50301;SDS011;36550;50.472;19.744;2022-07-29T04:35:40;7.50;;;2.20;;
50301;SDS011;36550;50.472;19.744;2022-07-29T04:38:24;7.92;;;2.45;;
50301;SDS011;36550;50.472;19.744;2022-07-29T04:41:08;7.85;;;3.20;;
50301;SDS011;36550;50.472;19.744;2022-07-29T04:43:52;8.15;;;2.33;;
50301;SDS011;36550;50.472;19.744;2022-07-29T04:46:37;5.77;;;2.10;;
50301;SDS011;36550;50.472;19.744;2022-07-29T04:49:22;5.92;;;2.30;;
50301;SDS011;36550;50.472;19.744;2022-07-29T04:52:06;4.85;;;1.92;;
50301;SDS011;36550;50.472;19.744;2022-07-29T04:54:51;4.80;;;2.40;;
50301;SDS011;36550;50.472;19.744;2022-07-29T04:57:35;7.15;;;2.37;;
50301;SDS011;36550;50.472;19.744;2022-07-29T05:00:19;3.92;;;1.80;;
50301;SDS011;36550;50.472;19.744;2022-07-29T05:03:04;7.42;;;2.10;;
50301;SDS011;36550;50.472;19.744;2022-07-29T05:05:47;3.40;;;1.85;;
50301;SDS011;36550;50.472;19.744;2022-07-29T05:08:32;8.05;;;2.00;;
50301;SDS011;36550;50.472;19.744;2022-07-29T05:11:16;5.10;;;1.60;;
50301;SDS011;36550;50.472;19.744;2022-07-29T05:14:00;6.50;;;1.60;;
50301;SDS011;36550;50.472;19.744;2022-07-29T05:16:44;3.37;;;1.50;;
50301;SDS011;36550;50.472;19.744;2022-07-29T05:19:29;3.98;;;1.60;;
50301;SDS011;36550;50.472;19.744;2022-07-29T05:22:13;6.35;;;1.60;;
50301;SDS011;36550;50.472;19.744;2022-07-29T05:24:57;6.67;;;1.60;;
50301;SDS011;36550;50.472;19.744;2022-07-29T05:27:41;2.77;;;1.47;;
50301;SDS011;36550;50.472;19.744;2022-07-29T05:30:26;2.33;;;1.25;;
50301;SDS011;36550;50.472;19.744;2022-07-29T05:33:10;4.12;;;1.40;;
50301;SDS011;36550;50.472;19.744;2022-07-29T05:35:54;3.17;;;1.27;;
50301;SDS011;36550;50.472;19.744;2022-07-29T05:38:38;4.45;;;1.20;;
50301;SDS011;36550;50.472;19.744;2022-07-29T05:41:23;3.20;;;1.07;;
50301;SDS011;36550;50.472;19.744;2022-07-29T05:44:07;2.30;;;0.90;;
50301;SDS011;36550;50.472;19.744;2022-07-29T05:46:51;6.78;;;1.10;;
50301;SDS011;36550;50.472;19.744;2022-07-29T05:49:36;3.52;;;1.05;;
50301;SDS011;36550;50.472;19.744;2022-07-29T05:52:20;2.27;;;1.00;;
50301;SDS011;36550;50.472;19.744;2022-07-29T05:55:05;2.43;;;1.00;;
50301;SDS011;36550;50.472;19.744;2022-07-29T05:57:51;2.85;;;1.10;;
50301;SDS011;36550;50.472;19.744;2022-07-29T06:00:36;5.85;;;0.95;;
50301;SDS011;36550;50.472;19.744;2022-07-29T06:03:20;2.10;;;1.00;;
50301;SDS011;36550;50.472;19.744;2022-07-29T06:06:04;2.98;;;0.70;;
50301;SDS011;36550;50.472;19.744;2022-07-29T06:08:49;3.25;;;1.00;;
50301;SDS011;36550;50.472;19.744;2022-07-29T06:11:33;1.98;;;0.82;;
50301;SDS011;36550;50.472;19.744;2022-07-29T06:14:17;2.83;;;0.80;;
50301;SDS011;36550;50.472;19.744;2022-07-29T06:17:02;5.28;;;0.93;;
50301;SDS011;36550;50.472;19.744;2022-07-29T06:19:46;3.55;;;0.80;;
50301;SDS011;36550;50.472;19.744;2022-07-29T06:22:30;2.50;;;0.98;;
50301;SDS011;36550;50.472;19.744;2022-07-29T06:25:14;4.03;;;0.85;;
50301;SDS011;36550;50.472;19.744;2022-07-29T06:27:58;2.60;;;1.00;;
50301;SDS011;36550;50.472;19.744;2022-07-29T06:30:42;2.20;;;0.72;;
50301;SDS011;36550;50.472;19.744;2022-07-29T06:33:26;2.98;;;0.80;;
50301;SDS011;36550;50.472;19.744;2022-07-29T06:36:10;2.22;;;1.00;;
50301;SDS011;36550;50.472;19.744;2022-07-29T06:38:55;1.05;;;0.62;;
50301;SDS011;36550;50.472;19.744;2022-07-29T06:41:39;5.92;;;0.80;;
50301;SDS011;36550;50.472;19.744;2022-07-29T06:44:23;4.72;;;0.95;;
50301;SDS011;36550;50.472;19.744;2022-07-29T06:47:08;3.20;;;1.00;;
50301;SDS011;36550;50.472;19.744;2022-07-29T06:49:52;4.15;;;1.00;;
50301;SDS011;36550;50.472;19.744;2022-07-29T06:52:36;5.97;;;0.93;;
50301;SDS011;36550;50.472;19.744;2022-07-29T06:55:20;4.40;;;0.97;;
50301;SDS011;36550;50.472;19.744;2022-07-29T06:58:04;2.90;;;0.90;;
50301;SDS011;36550;50.472;19.744;2022-07-29T07:00:50;2.90;;;0.80;;
50301;SDS011;36550;50.472;19.744;2022-07-29T07:03:35;2.83;;;0.93;;
50301;SDS011;36550;50.472;19.744;2022-07-29T07:06:19;3.00;;;0.70;;
50301;SDS011;36550;50.472;19.744;2022-07-29T07:09:03;5.23;;;0.90;;
50301;SDS011;36550;50.472;19.744;2022-07-29T07:11:48;3.50;;;0.80;;
50301;SDS011;36550;50.472;19.744;2022-07-29T07:14:32;2.47;;;0.80;;
50301;SDS011;36550;50.472;19.744;2022-07-29T07:17:16;2.77;;;0.70;;
50301;SDS011;36550;50.472;19.744;2022-07-29T07:20:00;5.83;;;0.80;;
50301;SDS011;36550;50.472;19.744;2022-07-29T07:22:44;2.37;;;1.10;;
50301;SDS011;36550;50.472;19.744;2022-07-29T07:25:29;5.50;;;1.10;;
50301;SDS011;36550;50.472;19.744;2022-07-29T07:28:13;3.62;;;0.90;;
50301;SDS011;36550;50.472;19.744;2022-07-29T07:30:57;8.60;;;1.17;;
50301;SDS011;36550;50.472;19.744;2022-07-29T07:33:41;4.70;;;1.00;;
50301;SDS011;36550;50.472;19.744;2022-07-29T07:36:26;10.88;;;1.05;;
50301;SDS011;36550;50.472;19.744;2022-07-29T07:39:10;3.50;;;0.80;;
50301;SDS011;36550;50.472;19.744;2022-07-29T07:41:54;8.05;;;1.15;;
50301;SDS011;36550;50.472;19.744;2022-07-29T07:44:38;3.67;;;0.80;;
50301;SDS011;36550;50.472;19.744;2022-07-29T07:47:23;2.67;;;1.27;;
50301;SDS011;36550;50.472;19.744;2022-07-29T07:50:08;1.12;;;0.90;;
50301;SDS011;36550;50.472;19.744;2022-07-29T07:52:55;3.25;;;1.07;;
50301;SDS011;36550;50.472;19.744;2022-07-29T07:55:41;3.02;;;1.10;;
50301;SDS011;36550;50.472;19.744;2022-07-29T07:58:26;2.40;;;1.07;;
50301;SDS011;36550;50.472;19.744;2022-07-29T08:01:10;4.87;;;1.10;;
50301;SDS011;36550;50.472;19.744;2022-07-29T08:03:55;4.67;;;1.00;;
50301;SDS011;36550;50.472;19.744;2022-07-29T08:06:39;6.20;;;1.10;;
50301;SDS011;36550;50.472;19.744;2022-07-29T08:09:23;3.95;;;1.00;;
50301;SDS011;36550;50.472;19.744;2022-07-29T08:12:09;5.00;;;0.95;;
50301;SDS011;36550;50.472;19.744;2022-07-29T08:14:54;2.47;;;0.90;;
50301;SDS011;36550;50.472;19.744;2022-07-29T08:17:38;7.90;;;1.00;;
50301;SDS011;36550;50.472;19.744;2022-07-29T08:20:22;5.20;;;1.10;;
50301;SDS011;36550;50.472;19.744;2022-07-29T08:23:07;4.87;;;1.00;;
50301;SDS011;36550;50.472;19.744;2022-07-29T08:25:54;4.50;;;1.30;;
50301;SDS011;36550;50.472;19.744;2022-07-29T08:28:42;7.20;;;1.00;;
50301;SDS011;36550;50.472;19.744;2022-07-29T08:31:29;2.58;;;0.70;;
50301;SDS011;36550;50.472;19.744;2022-07-29T08:34:13;15.00;;;1.30;;
50301;SDS011;36550;50.472;19.744;2022-07-29T08:36:57;4.20;;;1.20;;
50301;SDS011;36550;50.472;19.744;2022-07-29T08:39:42;5.30;;;1.00;;
50301;SDS011;36550;50.472;19.744;2022-07-29T08:42:26;6.03;;;1.10;;
50301;SDS011;36550;50.472;19.744;2022-07-29T08:45:11;8.15;;;1.10;;
50301;SDS011;36550;50.472;19.744;2022-07-29T08:47:55;2.75;;;1.10;;
50301;SDS011;36550;50.472;19.744;2022-07-29T08:50:41;2.17;;;1.00;;
50301;SDS011;36550;50.472;19.744;2022-07-29T08:53:26;4.45;;;0.90;;
50301;SDS011;36550;50.472;19.744;2022-07-29T08:56:12;2.33;;;1.10;;
50301;SDS011;36550;50.472;19.744;2022-07-29T08:58:58;3.15;;;1.10;;
50301;SDS011;36550;50.472;19.744;2022-07-29T09:01:46;3.98;;;1.10;;
50301;SDS011;36550;50.472;19.744;2022-07-29T09:04:32;3.27;;;1.10;;
50301;SDS011;36550;50.472;19.744;2022-07-29T09:07:18;1.75;;;1.07;;
50301;SDS011;36550;50.472;19.744;2022-07-29T09:10:03;2.50;;;0.88;;
50301;SDS011;36550;50.472;19.744;2022-07-29T09:12:51;4.35;;;1.07;;
50301;SDS011;36550;50.472;19.744;2022-07-29T09:15:38;2.35;;;1.12;;
50301;SDS011;36550;50.472;19.744;2022-07-29T09:18:35;5.30;;;1.20;;
50301;SDS011;36550;50.472;19.744;2022-07-29T09:21:25;8.90;;;1.25;;
50301;SDS011;36550;50.472;19.744;2022-07-29T09:24:41;2.33;;;1.20;;
50301;SDS011;36550;50.472;19.744;2022-07-29T09:27:30;4.30;;;1.27;;
50301;SDS011;36550;50.472;19.744;2022-07-29T09:30:15;2.70;;;1.23;;
50301;SDS011;36550;50.472;19.744;2022-07-29T09:33:00;2.33;;;1.37;;
50301;SDS011;36550;50.472;19.744;2022-07-29T09:35:46;3.58;;;1.62;;
50301;SDS011;36550;50.472;19.744;2022-07-29T09:38:59;3.17;;;1.10;;
50301;SDS011;36550;50.472;19.744;2022-07-29T09:41:51;3.55;;;1.17;;
50301;SDS011;36550;50.472;19.744;2022-07-29T09:44:41;3.77;;;1.20;;
50301;SDS011;36550;50.472;19.744;2022-07-29T09:47:42;5.90;;;1.77;;
50301;SDS011;36550;50.472;19.744;2022-07-29T09:50:39;4.42;;;1.40;;
50301;SDS011;36550;50.472;19.744;2022-07-29T09:56:17;3.25;;;1.32;;
50301;SDS011;36550;50.472;19.744;2022-07-29T09:59:07;3.47;;;1.40;;
50301;SDS011;36550;50.472;19.744;2022-07-29T10:01:54;4.97;;;1.50;;
50301;SDS011;36550;50.472;19.744;2022-07-29T10:04:40;5.28;;;1.42;;
50301;SDS011;36550;50.472;19.744;2022-07-29T10:07:26;3.20;;;1.60;;
50301;SDS011;36550;50.472;19.744;2022-07-29T10:10:28;3.27;;;1.80;;
50301;SDS011;36550;50.472;19.744;2022-07-29T10:13:17;4.87;;;1.60;;
50301;SDS011;36550;50.472;19.744;2022-07-29T10:16:02;5.03;;;1.70;;
50301;SDS011;36550;50.472;19.744;2022-07-29T10:18:46;5.28;;;1.47;;
50301;SDS011;36550;50.472;19.744;2022-07-29T10:21:30;5.03;;;1.57;;
50301;SDS011;36550;50.472;19.744;2022-07-29T10:24:16;3.70;;;1.85;;
50301;SDS011;36550;50.472;19.744;2022-07-29T10:27:00;7.35;;;2.30;;
50301;SDS011;36550;50.472;19.744;2022-07-29T10:29:46;6.45;;;2.02;;
50301;SDS011;36550;50.472;19.744;2022-07-29T10:32:35;3.95;;;2.08;;
50301;SDS011;36550;50.472;19.744;2022-07-29T10:44:55;4.83;;;1.60;;
50301;SDS011;36550;50.472;19.744;2022-07-29T10:47:40;7.37;;;2.00;;
50301;SDS011;36550;50.472;19.744;2022-07-29T10:50:25;9.80;;;2.00;;
50301;SDS011;36550;50.472;19.744;2022-07-29T10:53:09;3.40;;;2.17;;
50301;SDS011;36550;50.472;19.744;2022-07-29T10:55:54;4.83;;;2.00;;
50301;SDS011;36550;50.472;19.744;2022-07-29T10:58:38;6.00;;;2.20;;
50301;SDS011;36550;50.472;19.744;2022-07-29T11:01:29;6.63;;;2.40;;
50301;SDS011;36550;50.472;19.744;2022-07-29T11:04:15;3.65;;;2.40;;
50301;SDS011;36550;50.472;19.744;2022-07-29T11:13:02;4.08;;;1.90;;
50301;SDS011;36550;50.472;19.744;2022-07-29T11:15:55;4.40;;;1.85;;
50301;SDS011;36550;50.472;19.744;2022-07-29T11:22:00;3.77;;;1.92;;
50301;SDS011;36550;50.472;19.744;2022-07-29T11:24:44;8.57;;;;;
50301;SDS011;36550;50.472;19.744;2022-07-29T11:27:35;6.05;;;1.95;;
50301;SDS011;36550;50.472;19.744;2022-07-29T11:30:21;5.30;;;2.00;;
50301;SDS011;36550;50.472;19.744;2022-07-29T11:33:26;7.15;;;1.95;;
50301;SDS011;36550;50.472;19.744;2022-07-29T11:36:16;3.35;;;1.70;;
50301;SDS011;36550;50.472;19.744;2022-07-29T11:45:17;4.45;;;1.60;;
50301;SDS011;36550;50.472;19.744;2022-07-29T11:48:03;5.70;;;1.80;;
50301;SDS011;36550;50.472;19.744;2022-07-29T11:50:49;6.92;;;1.98;;
50301;SDS011;36550;50.472;19.744;2022-07-29T11:53:34;4.40;;;1.75;;
50301;SDS011;36550;50.472;19.744;2022-07-29T11:56:20;5.70;;;1.80;;
50301;SDS011;36550;50.472;19.744;2022-07-29T11:59:06;4.03;;;1.70;;
50301;SDS011;36550;50.472;19.744;2022-07-29T12:01:56;4.65;;;1.85;;
50301;SDS011;36550;50.472;19.744;2022-07-29T12:04:48;2.62;;;1.70;;
50301;SDS011;36550;50.472;19.744;2022-07-29T12:07:35;4.08;;;1.70;;
50301;SDS011;36550;50.472;19.744;2022-07-29T12:10:20;10.15;;;1.72;;
50301;SDS011;36550;50.472;19.744;2022-07-29T12:13:04;5.23;;;1.80;;
50301;SDS011;36550;50.472;19.744;2022-07-29T12:15:52;3.35;;;1.70;;
50301;SDS011;36550;50.472;19.744;2022-07-29T12:18:42;3.90;;;1.80;;
50301;SDS011;36550;50.472;19.744;2022-07-29T12:21:26;7.80;;;2.10;;
50301;SDS011;36550;50.472;19.744;2022-07-29T12:24:10;5.65;;;1.90;;
50301;SDS011;36550;50.472;19.744;2022-07-29T12:26:55;5.10;;;1.90;;
50301;SDS011;36550;50.472;19.744;2022-07-29T12:29:41;3.50;;;1.65;;
50301;SDS011;36550;50.472;19.744;2022-07-29T12:35:20;2.27;;;1.60;;
50301;SDS011;36550;50.472;19.744;2022-07-29T12:38:04;3.05;;;1.85;;
50301;SDS011;36550;50.472;19.744;2022-07-29T12:43:35;6.87;;;1.67;;
50301;SDS011;36550;50.472;19.744;2022-07-29T12:46:19;5.12;;;1.75;;
50301;SDS011;36550;50.472;19.744;2022-07-29T12:49:03;5.08;;;1.77;;
50301;SDS011;36550;50.472;19.744;2022-07-29T12:51:48;2.83;;;1.60;;
50301;SDS011;36550;50.472;19.744;2022-07-29T12:54:32;4.25;;;1.60;;
50301;SDS011;36550;50.472;19.744;2022-07-29T12:57:16;2.50;;;1.60;;
50301;SDS011;36550;50.472;19.744;2022-07-29T13:02:55;3.50;;;1.90;;
50301;SDS011;36550;50.472;19.744;2022-07-29T13:05:44;2.77;;;1.82;;
50301;SDS011;36550;50.472;19.744;2022-07-29T13:08:29;3.05;;;1.75;;
50301;SDS011;36550;50.472;19.744;2022-07-29T13:11:33;3.85;;;1.70;;
50301;SDS011;36550;50.472;19.744;2022-07-29T13:14:31;6.75;;;1.72;;
50301;SDS011;36550;50.472;19.744;2022-07-29T13:17:22;2.17;;;1.60;;
50301;SDS011;36550;50.472;19.744;2022-07-29T13:20:07;5.67;;;1.92;;
50301;SDS011;36550;50.472;19.744;2022-07-29T13:22:57;7.22;;;1.80;;
50301;SDS011;36550;50.472;19.744;2022-07-29T13:25:43;3.67;;;1.70;;
50301;SDS011;36550;50.472;19.744;2022-07-29T13:28:27;6.95;;;1.80;;
50301;SDS011;36550;50.472;19.744;2022-07-29T13:31:12;4.35;;;1.90;;
50301;SDS011;36550;50.472;19.744;2022-07-29T13:33:56;4.50;;;1.70;;
50301;SDS011;36550;50.472;19.744;2022-07-29T13:36:40;4.65;;;1.70;;
50301;SDS011;36550;50.472;19.744;2022-07-29T13:39:24;12.73;;;3.00;;
50301;SDS011;36550;50.472;19.744;2022-07-29T13:42:08;4.45;;;2.00;;
50301;SDS011;36550;50.472;19.744;2022-07-29T13:44:53;5.80;;;2.25;;
50301;SDS011;36550;50.472;19.744;2022-07-29T13:47:38;7.50;;;1.90;;
50301;SDS011;36550;50.472;19.744;2022-07-29T13:50:22;8.08;;;1.70;;
50301;SDS011;36550;50.472;19.744;2022-07-29T13:53:07;2.50;;;1.80;;
50301;SDS011;36550;50.472;19.744;2022-07-29T13:55:51;3.93;;;1.70;;
50301;SDS011;36550;50.472;19.744;2022-07-29T13:58:35;5.83;;;1.82;;
50301;SDS011;36550;50.472;19.744;2022-07-29T14:01:19;7.08;;;1.75;;
50301;SDS011;36550;50.472;19.744;2022-07-29T14:04:04;3.77;;;1.80;;
50301;SDS011;36550;50.472;19.744;2022-07-29T14:06:48;4.37;;;1.90;;
50301;SDS011;36550;50.472;19.744;2022-07-29T14:09:33;8.10;;;1.60;;
50301;SDS011;36550;50.472;19.744;2022-07-29T14:12:18;5.90;;;1.80;;
50301;SDS011;36550;50.472;19.744;2022-07-29T14:15:03;4.03;;;1.70;;
50301;SDS011;36550;50.472;19.744;2022-07-29T14:17:48;5.42;;;1.75;;
50301;SDS011;36550;50.472;19.744;2022-07-29T14:20:33;3.42;;;1.80;;
50301;SDS011;36550;50.472;19.744;2022-07-29T14:23:17;4.45;;;1.77;;
50301;SDS011;36550;50.472;19.744;2022-07-29T14:26:02;4.28;;;1.90;;
50301;SDS011;36550;50.472;19.744;2022-07-29T14:28:46;7.95;;;1.80;;
50301;SDS011;36550;50.472;19.744;2022-07-29T14:31:31;2.90;;;1.90;;
50301;SDS011;36550;50.472;19.744;2022-07-29T14:34:15;5.17;;;1.97;;
50301;SDS011;36550;50.472;19.744;2022-07-29T14:36:59;5.73;;;1.93;;
50301;SDS011;36550;50.472;19.744;2022-07-29T14:39:43;7.00;;;2.00;;
50301;SDS011;36550;50.472;19.744;2022-07-29T14:42:27;6.05;;;1.90;;
50301;SDS011;36550;50.472;19.744;2022-07-29T14:45:12;4.97;;;1.90;;
50301;SDS011;36550;50.472;19.744;2022-07-29T14:47:56;2.83;;;1.87;;
50301;SDS011;36550;50.472;19.744;2022-07-29T14:50:41;6.15;;;1.77;;
50301;SDS011;36550;50.472;19.744;2022-07-29T14:53:25;3.83;;;1.90;;
50301;SDS011;36550;50.472;19.744;2022-07-29T14:56:09;3.75;;;1.80;;
50301;SDS011;36550;50.472;19.744;2022-07-29T14:58:53;4.60;;;1.92;;
50301;SDS011;36550;50.472;19.744;2022-07-29T15:01:38;4.20;;;1.72;;
50301;SDS011;36550;50.472;19.744;2022-07-29T15:04:22;4.70;;;1.90;;
50301;SDS011;36550;50.472;19.744;2022-07-29T15:07:06;3.87;;;2.00;;
50301;SDS011;36550;50.472;19.744;2022-07-29T15:09:50;3.33;;;2.00;;
50301;SDS011;36550;50.472;19.744;2022-07-29T15:12:35;2.85;;;1.80;;
50301;SDS011;36550;50.472;19.744;2022-07-29T15:15:19;3.67;;;1.90;;
50301;SDS011;36550;50.472;19.744;2022-07-29T15:18:03;5.75;;;2.37;;
50301;SDS011;36550;50.472;19.744;2022-07-29T15:23:32;2.60;;;1.80;;
50301;SDS011;36550;50.472;19.744;2022-07-29T15:26:19;7.03;;;1.72;;
50301;SDS011;36550;50.472;19.744;2022-07-29T15:29:03;6.28;;;2.05;;
50301;SDS011;36550;50.472;19.744;2022-07-29T15:31:47;12.40;;;2.80;;
50301;SDS011;36550;50.472;19.744;2022-07-29T15:34:31;6.62;;;2.40;;
50301;SDS011;36550;50.472;19.744;2022-07-29T15:39:59;10.15;;;2.33;;
50301;SDS011;36550;50.472;19.744;2022-07-29T15:42:43;4.97;;;2.00;;
50301;SDS011;36550;50.472;19.744;2022-07-29T15:45:27;4.65;;;2.00;;
50301;SDS011;36550;50.472;19.744;2022-07-29T15:48:12;7.10;;;2.10;;
50301;SDS011;36550;50.472;19.744;2022-07-29T15:53:42;5.78;;;1.87;;
50301;SDS011;36550;50.472;19.744;2022-07-29T15:56:26;3.57;;;2.17;;
50301;SDS011;36550;50.472;19.744;2022-07-29T15:59:11;13.35;;;2.30;;
50301;SDS011;36550;50.472;19.744;2022-07-29T16:01:55;9.78;;;2.20;;
50301;SDS011;36550;50.472;19.744;2022-07-29T16:04:39;8.30;;;2.33;;
50301;SDS011;36550;50.472;19.744;2022-07-29T16:07:23;13.62;;;3.70;;
50301;SDS011;36550;50.472;19.744;2022-07-29T16:10:07;6.53;;;2.50;;
50301;SDS011;36550;50.472;19.744;2022-07-29T16:12:51;15.85;;;3.10;;
50301;SDS011;36550;50.472;19.744;2022-07-29T16:15:35;9.17;;;2.73;;
50301;SDS011;36550;50.472;19.744;2022-07-29T16:18:20;5.25;;;2.25;;
50301;SDS011;36550;50.472;19.744;2022-07-29T16:21:04;6.87;;;2.27;;
50301;SDS011;36550;50.472;19.744;2022-07-29T16:23:48;5.33;;;2.17;;
50301;SDS011;36550;50.472;19.744;2022-07-29T16:26:32;9.17;;;2.60;;
50301;SDS011;36550;50.472;19.744;2022-07-29T16:29:17;5.42;;;2.33;;
50301;SDS011;36550;50.472;19.744;2022-07-29T16:32:02;6.28;;;2.27;;
50301;SDS011;36550;50.472;19.744;2022-07-29T16:34:47;4.42;;;2.08;;
50301;SDS011;36550;50.472;19.744;2022-07-29T16:37:32;8.28;;;2.30;;
50301;SDS011;36550;50.472;19.744;2022-07-29T16:40:18;9.18;;;2.00;;
50301;SDS011;36550;50.472;19.744;2022-07-29T16:43:02;7.67;;;2.30;;
50301;SDS011;36550;50.472;19.744;2022-07-29T16:45:46;7.95;;;2.47;;
50301;SDS011;36550;50.472;19.744;2022-07-29T16:48:30;4.53;;;2.40;;
50301;SDS011;36550;50.472;19.744;2022-07-29T16:51:14;4.85;;;2.47;;
50301;SDS011;36550;50.472;19.744;2022-07-29T16:53:59;4.40;;;2.00;;
50301;SDS011;36550;50.472;19.744;2022-07-29T16:56:43;8.40;;;2.37;;
50301;SDS011;36550;50.472;19.744;2022-07-29T16:59:28;19.50;;;2.90;;
50301;SDS011;36550;50.472;19.744;2022-07-29T17:02:12;7.03;;;2.67;;
50301;SDS011;36550;50.472;19.744;2022-07-29T17:04:57;5.95;;;2.35;;
50301;SDS011;36550;50.472;19.744;2022-07-29T17:07:41;4.53;;;2.70;;
50301;SDS011;36550;50.472;19.744;2022-07-29T17:10:26;5.87;;;2.30;;
50301;SDS011;36550;50.472;19.744;2022-07-29T17:13:12;15.10;;;2.87;;
50301;SDS011;36550;50.472;19.744;2022-07-29T17:15:56;9.10;;;2.70;;
50301;SDS011;36550;50.472;19.744;2022-07-29T17:18:40;6.00;;;2.47;;
50301;SDS011;36550;50.472;19.744;2022-07-29T17:21:24;8.05;;;2.67;;
50301;SDS011;36550;50.472;19.744;2022-07-29T17:24:09;4.43;;;2.47;;